sensor_id;sensor_type;location;lat;lon;timestamp;temperature;humidity
1075;DHT22;526;51.392;12.448;2024-03-08T05:01:46;-0.50;97.30
1075;DHT22;526;51.392;12.448;2024-03-08T05:04:15;-0.60;97.30
1075;DHT22;526;51.392;12.448;2024-03-08T05:06:41;-0.60;97.30
1075;DHT22;526;51.392;12.448;2024-03-08T05:09:06;-0.60;97.30
1075;DHT22;526;51.392;12.448;2024-03-08T05:11:45;-0.60;97.30
1075;DHT22;526;51.392;12.448;2024-03-08T05:14:12;-0.70;97.30
1075;DHT22;526;51.392;12.448;2024-03-08T05:16:46;-0.70;97.30
1075;DHT22;526;51.392;12.448;2024-03-08T05:19:19;-0.70;97.30
1075;DHT22;526;51.392;12.448;2024-03-08T05:21:45;-0.70;97.30
1075;DHT22;526;51.392;12.448;2024-03-08T05:24:11;-0.70;97.30
1075;DHT22;526;51.392;12.448;2024-03-08T05:26:38;-0.80;97.30
1075;DHT22;526;51.392;12.448;2024-03-08T05:29:04;-0.80;97.30
1075;DHT22;526;51.392;12.448;2024-03-08T05:31:42;-0.80;97.30
1075;DHT22;526;51.392;12.448;2024-03-08T05:34:10;-0.80;97.30
1075;DHT22;526;51.392;12.448;2024-03-08T05:36:36;-0.80;97.30
1075;DHT22;526;51.392;12.448;2024-03-08T05:39:01;-0.80;97.30
1075;DHT22;526;51.392;12.448;2024-03-08T05:41:27;-0.80;97.30
1075;DHT22;526;51.392;12.448;2024-03-08T05:43:52;-0.80;97.30
1075;DHT22;526;51.392;12.448;2024-03-08T05:46:19;-0.90;97.30
1075;DHT22;526;51.392;12.448;2024-03-08T05:48:44;-0.90;97.30
1075;DHT22;526;51.392;12.448;2024-03-08T05:51:10;-0.90;97.30
1075;DHT22;526;51.392;12.448;2024-03-08T05:53:36;-0.90;97.30
1075;DHT22;526;51.392;12.448;2024-03-08T05:56:01;-0.90;97.30
1075;DHT22;526;51.392;12.448;2024-03-08T05:58:27;-0.90;97.30
1075;DHT22;526;51.392;12.448;2024-03-08T06:00:55;-0.80;97.30
1075;DHT22;526;51.392;12.448;2024-03-08T06:03:21;-0.80;97.30
1075;DHT22;526;51.392;12.448;2024-03-08T06:05:50;-0.80;97.30
1075;DHT22;526;51.392;12.448;2024-03-08T06:08:16;-0.80;97.30
1075;DHT22;526;51.392;12.448;2024-03-08T06:10:42;-0.80;97.30
1075;DHT22;526;51.392;12.448;2024-03-08T06:13:07;-0.80;97.30
1075;DHT22;526;51.392;12.448;2024-03-08T06:15:33;-0.80;97.30
1075;DHT22;526;51.392;12.448;2024-03-08T06:18:00;-0.80;97.30
1075;DHT22;526;51.392;12.448;2024-03-08T06:20:28;-0.70;97.30
1075;DHT22;526;51.392;12.448;2024-03-08T06:22:53;-0.70;97.30
1075;DHT22;526;51.392;12.448;2024-03-08T06:25:19;-0.60;97.30
1075;DHT22;526;51.392;12.448;2024-03-08T06:27:44;-0.60;97.30
1075;DHT22;526;51.392;12.448;2024-03-08T06:30:13;-0.60;97.30
1075;DHT22;526;51.392;12.448;2024-03-08T06:32:41;-0.50;97.30
1075;DHT22;526;51.392;12.448;2024-03-08T06:35:08;-0.50;97.30
1075;DHT22;526;51.392;12.448;2024-03-08T06:37:35;-0.50;97.30
1075;DHT22;526;51.392;12.448;2024-03-08T06:40:02;-0.40;97.30
1075;DHT22;526;51.392;12.448;2024-03-08T06:42:28;-0.40;97.30
1075;DHT22;526;51.392;12.448;2024-03-08T06:44:54;-0.30;97.30
1075;DHT22;526;51.392;12.448;2024-03-08T06:47:25;-0.20;97.30
1075;DHT22;526;51.392;12.448;2024-03-08T06:49:51;-0.20;97.30
1075;DHT22;526;51.392;12.448;2024-03-08T06:52:17;-0.10;97.30
1075;DHT22;526;51.392;12.448;2024-03-08T06:54:43;-0.10;97.30
1075;DHT22;526;51.392;12.448;2024-03-08T06:57:08;0.00;97.30
1075;DHT22;526;51.392;12.448;2024-03-08T06:59:35;0.00;97.30
1075;DHT22;526;51.392;12.448;2024-03-08T07:02:02;0.10;97.30
1075;DHT22;526;51.392;12.448;2024-03-08T07:04:27;0.10;97.30
1075;DHT22;526;51.392;12.448;2024-03-08T07:06:55;0.20;97.30
1075;DHT22;526;51.392;12.448;2024-03-08T07:09:21;0.30;97.30
1075;DHT22;526;51.392;12.448;2024-03-08T07:11:46;0.40;97.30
1075;DHT22;526;51.392;12.448;2024-03-08T07:14:12;0.50;97.30
1075;DHT22;526;51.392;12.448;2024-03-08T07:16:40;0.60;97.30
1075;DHT22;526;51.392;12.448;2024-03-08T07:19:07;0.70;97.30
1075;DHT22;526;51.392;12.448;2024-03-08T07:21:32;0.80;97.30
1075;DHT22;526;51.392;12.448;2024-03-08T07:23:58;0.90;97.30
1075;DHT22;526;51.392;12.448;2024-03-08T07:26:35;1.00;97.30
1075;DHT22;526;51.392;12.448;2024-03-08T07:29:00;1.10;97.30
1075;DHT22;526;51.392;12.448;2024-03-08T07:31:26;1.10;97.30
1075;DHT22;526;51.392;12.448;2024-03-08T07:33:51;1.10;97.30
1075;DHT22;526;51.392;12.448;2024-03-08T07:36:18;1.30;97.30
1075;DHT22;526;51.392;12.448;2024-03-08T07:38:44;1.40;97.30
1075;DHT22;526;51.392;12.448;2024-03-08T07:41:12;1.40;97.30
1075;DHT22;526;51.392;12.448;2024-03-08T07:43:38;1.50;97.30
1075;DHT22;526;51.392;12.448;2024-03-08T07:46:04;1.60;97.30
1075;DHT22;526;51.392;12.448;2024-03-08T07:48:29;1.60;97.30
1075;DHT22;526;51.392;12.448;2024-03-08T07:50:56;1.70;97.30
1075;DHT22;526;51.392;12.448;2024-03-08T07:53:21;1.70;97.30
1075;DHT22;526;51.392;12.448;2024-03-08T07:55:47;1.90;97.30
1075;DHT22;526;51.392;12.448;2024-03-08T07:58:12;1.90;97.30
1075;DHT22;526;51.392;12.448;2024-03-08T08:00:39;1.80;97.30
1075;DHT22;526;51.392;12.448;2024-03-08T08:03:05;1.90;97.30
1075;DHT22;526;51.392;12.448;2024-03-08T08:05:30;2.00;97.30
1075;DHT22;526;51.392;12.448;2024-03-08T08:08:04;2.10;97.30
1075;DHT22;526;51.392;12.448;2024-03-08T08:10:33;2.10;97.30
1075;DHT22;526;51.392;12.448;2024-03-08T08:12:58;2.20;97.30
1075;DHT22;526;51.392;12.448;2024-03-08T08:15:24;2.20;97.30
1075;DHT22;526;51.392;12.448;2024-03-08T08:17:50;2.30;97.30
1075;DHT22;526;51.392;12.448;2024-03-08T08:20:17;2.40;97.30
1075;DHT22;526;51.392;12.448;2024-03-08T08:22:43;2.50;97.30
1075;DHT22;526;51.392;12.448;2024-03-08T08:25:09;2.60;97.30
1075;DHT22;526;51.392;12.448;2024-03-08T08:27:38;2.80;97.30
1075;DHT22;526;51.392;12.448;2024-03-08T08:30:05;2.90;97.30
1075;DHT22;526;51.392;12.448;2024-03-08T08:32:34;3.00;97.30
1075;DHT22;526;51.392;12.448;2024-03-08T08:35:01;3.10;97.30
1075;DHT22;526;51.392;12.448;2024-03-08T08:37:27;3.30;97.30
1075;DHT22;526;51.392;12.448;2024-03-08T08:39:54;3.40;97.30
1075;DHT22;526;51.392;12.448;2024-03-08T08:42:19;3.40;97.30
1075;DHT22;526;51.392;12.448;2024-03-08T08:44:45;3.40;97.30
1075;DHT22;526;51.392;12.448;2024-03-08T08:47:11;3.50;97.30
1075;DHT22;526;51.392;12.448;2024-03-08T08:49:38;3.70;97.30
1075;DHT22;526;51.392;12.448;2024-03-08T08:52:04;3.80;97.30
1075;DHT22;526;51.392;12.448;2024-03-08T08:54:30;3.90;97.30
1075;DHT22;526;51.392;12.448;2024-03-08T08:56:56;4.10;97.30
1075;DHT22;526;51.392;12.448;2024-03-08T08:59:22;4.10;97.30
1075;DHT22;526;51.392;12.448;2024-03-08T09:01:50;4.20;97.30
1075;DHT22;526;51.392;12.448;2024-03-08T09:04:19;4.40;97.30
1075;DHT22;526;51.392;12.448;2024-03-08T09:06:44;4.60;97.30
1075;DHT22;526;51.392;12.448;2024-03-08T09:09:10;4.70;97.30
1075;DHT22;526;51.392;12.448;2024-03-08T09:11:39;4.80;97.30
1075;DHT22;526;51.392;12.448;2024-03-08T09:14:07;4.90;97.30
1075;DHT22;526;51.392;12.448;2024-03-08T09:16:34;5.00;97.30
1075;DHT22;526;51.392;12.448;2024-03-08T09:18:59;5.10;97.30
1075;DHT22;526;51.392;12.448;2024-03-08T09:21:25;5.10;97.30
1075;DHT22;526;51.392;12.448;2024-03-08T09:23:52;5.10;97.30
1075;DHT22;526;51.392;12.448;2024-03-08T09:26:18;5.30;97.30
1075;DHT22;526;51.392;12.448;2024-03-08T09:28:44;5.40;97.30
1075;DHT22;526;51.392;12.448;2024-03-08T09:31:11;5.50;97.30
1075;DHT22;526;51.392;12.448;2024-03-08T09:33:36;5.60;97.30
1075;DHT22;526;51.392;12.448;2024-03-08T09:36:02;5.60;97.30
1075;DHT22;526;51.392;12.448;2024-03-08T09:38:29;5.60;97.30
1075;DHT22;526;51.392;12.448;2024-03-08T09:40:55;5.70;97.30
1075;DHT22;526;51.392;12.448;2024-03-08T09:43:22;5.70;97.30
1075;DHT22;526;51.392;12.448;2024-03-08T09:45:49;5.80;97.30
1075;DHT22;526;51.392;12.448;2024-03-08T09:48:17;5.80;97.30
1075;DHT22;526;51.392;12.448;2024-03-08T09:50:44;5.90;97.30
1075;DHT22;526;51.392;12.448;2024-03-08T09:53:11;6.10;97.30
1075;DHT22;526;51.392;12.448;2024-03-08T09:55:38;6.20;97.30
1075;DHT22;526;51.392;12.448;2024-03-08T09:58:08;6.30;97.30
1075;DHT22;526;51.392;12.448;2024-03-08T10:00:43;6.40;97.30
1075;DHT22;526;51.392;12.448;2024-03-08T10:03:08;6.40;97.30
1075;DHT22;526;51.392;12.448;2024-03-08T10:05:34;6.40;97.30
1075;DHT22;526;51.392;12.448;2024-03-08T10:08:00;6.50;97.30
1075;DHT22;526;51.392;12.448;2024-03-08T10:10:25;6.60;97.30
1075;DHT22;526;51.392;12.448;2024-03-08T10:12:51;6.60;97.30
1075;DHT22;526;51.392;12.448;2024-03-08T10:15:17;6.80;97.30
1075;DHT22;526;51.392;12.448;2024-03-08T10:17:43;6.90;97.30
1075;DHT22;526;51.392;12.448;2024-03-08T10:20:18;6.90;97.30
1075;DHT22;526;51.392;12.448;2024-03-08T10:22:44;7.20;97.30
1075;DHT22;526;51.392;12.448;2024-03-08T10:25:11;7.40;97.30
1075;DHT22;526;51.392;12.448;2024-03-08T10:27:38;7.50;96.60
1075;DHT22;526;51.392;12.448;2024-03-08T10:30:06;7.70;96.70
1075;DHT22;526;51.392;12.448;2024-03-08T10:32:33;7.80;96.20
1075;DHT22;526;51.392;12.448;2024-03-08T10:34:59;7.90;96.30
1075;DHT22;526;51.392;12.448;2024-03-08T10:37:25;8.00;94.70
1075;DHT22;526;51.392;12.448;2024-03-08T10:40:03;8.10;94.70
1075;DHT22;526;51.392;12.448;2024-03-08T10:42:40;8.20;93.50
1075;DHT22;526;51.392;12.448;2024-03-08T10:45:15;8.20;93.20
1075;DHT22;526;51.392;12.448;2024-03-08T10:47:49;8.30;93.50
1075;DHT22;526;51.392;12.448;2024-03-08T10:50:19;8.50;94.40
1075;DHT22;526;51.392;12.448;2024-03-08T10:52:51;8.60;94.00
1075;DHT22;526;51.392;12.448;2024-03-08T10:55:20;8.80;94.20
1075;DHT22;526;51.392;12.448;2024-03-08T10:57:46;8.90;92.30
1075;DHT22;526;51.392;12.448;2024-03-08T11:00:15;8.90;91.80
1075;DHT22;526;51.392;12.448;2024-03-08T11:02:45;8.90;92.30
1075;DHT22;526;51.392;12.448;2024-03-08T11:05:11;9.00;92.30
1075;DHT22;526;51.392;12.448;2024-03-08T11:07:42;9.00;92.10
1075;DHT22;526;51.392;12.448;2024-03-08T11:10:19;9.00;92.00
1075;DHT22;526;51.392;12.448;2024-03-08T11:12:45;8.90;92.10
1075;DHT22;526;51.392;12.448;2024-03-08T11:15:13;8.90;91.70
1075;DHT22;526;51.392;12.448;2024-03-08T11:17:46;8.90;91.70
1075;DHT22;526;51.392;12.448;2024-03-08T11:20:17;9.00;92.30
1075;DHT22;526;51.392;12.448;2024-03-08T11:22:54;9.20;92.60
1075;DHT22;526;51.392;12.448;2024-03-08T11:28:12;9.50;92.20
1075;DHT22;526;51.392;12.448;2024-03-08T11:33:26;9.70;90.50
1075;DHT22;526;51.392;12.448;2024-03-08T11:35:52;9.70;90.60
1075;DHT22;526;51.392;12.448;2024-03-08T11:38:17;9.60;90.70
1075;DHT22;526;51.392;12.448;2024-03-08T11:40:46;9.90;91.50
1075;DHT22;526;51.392;12.448;2024-03-08T11:43:16;10.00;89.00
1075;DHT22;526;51.392;12.448;2024-03-08T11:45:41;10.00;87.90
1075;DHT22;526;51.392;12.448;2024-03-08T11:48:07;9.90;88.20
1075;DHT22;526;51.392;12.448;2024-03-08T11:50:33;10.00;89.40
1075;DHT22;526;51.392;12.448;2024-03-08T11:53:03;10.20;89.00
1075;DHT22;526;51.392;12.448;2024-03-08T11:55:29;10.30;88.80
1075;DHT22;526;51.392;12.448;2024-03-08T11:58:02;10.30;88.80
1075;DHT22;526;51.392;12.448;2024-03-08T12:00:28;10.20;88.70
1075;DHT22;526;51.392;12.448;2024-03-08T12:03:08;10.30;88.60
1075;DHT22;526;51.392;12.448;2024-03-08T12:05:35;10.10;87.70
1075;DHT22;526;51.392;12.448;2024-03-08T12:08:05;10.00;88.50
1075;DHT22;526;51.392;12.448;2024-03-08T12:10:33;10.10;88.60
1075;DHT22;526;51.392;12.448;2024-03-08T12:12:59;10.40;88.80
1075;DHT22;526;51.392;12.448;2024-03-08T12:15:25;10.50;87.40
1075;DHT22;526;51.392;12.448;2024-03-08T12:17:52;10.50;87.60
1075;DHT22;526;51.392;12.448;2024-03-08T12:22:49;10.50;88.10
1075;DHT22;526;51.392;12.448;2024-03-08T12:25:15;10.80;87.70
1075;DHT22;526;51.392;12.448;2024-03-08T12:27:42;11.10;87.30
1075;DHT22;526;51.392;12.448;2024-03-08T12:30:22;11.20;86.90
1075;DHT22;526;51.392;12.448;2024-03-08T12:32:50;11.30;86.80
1075;DHT22;526;51.392;12.448;2024-03-08T12:35:19;11.20;85.80
1075;DHT22;526;51.392;12.448;2024-03-08T12:37:48;10.90;86.10
1075;DHT22;526;51.392;12.448;2024-03-08T12:40:14;10.80;86.80
1075;DHT22;526;51.392;12.448;2024-03-08T12:42:43;11.00;87.40
1075;DHT22;526;51.392;12.448;2024-03-08T12:45:08;11.20;86.60
1075;DHT22;526;51.392;12.448;2024-03-08T12:47:35;11.40;86.90
1075;DHT22;526;51.392;12.448;2024-03-08T12:50:02;11.60;86.60
1075;DHT22;526;51.392;12.448;2024-03-08T12:52:28;11.50;85.70
1075;DHT22;526;51.392;12.448;2024-03-08T12:54:55;11.70;85.50
1075;DHT22;526;51.392;12.448;2024-03-08T12:57:21;11.70;85.20
1075;DHT22;526;51.392;12.448;2024-03-08T12:59:46;11.50;85.10
1075;DHT22;526;51.392;12.448;2024-03-08T13:02:12;11.50;85.70
1075;DHT22;526;51.392;12.448;2024-03-08T13:04:37;11.60;86.00
1075;DHT22;526;51.392;12.448;2024-03-08T13:07:03;11.90;85.30
1075;DHT22;526;51.392;12.448;2024-03-08T13:09:29;12.10;84.70
1075;DHT22;526;51.392;12.448;2024-03-08T13:12:29;12.20;84.60
1075;DHT22;526;51.392;12.448;2024-03-08T13:15:00;12.40;84.30
1075;DHT22;526;51.392;12.448;2024-03-08T13:17:39;12.50;84.00
1075;DHT22;526;51.392;12.448;2024-03-08T13:20:09;12.50;83.90
1075;DHT22;526;51.392;12.448;2024-03-08T13:22:35;12.40;83.70
1075;DHT22;526;51.392;12.448;2024-03-08T13:25:01;12.50;83.90
1075;DHT22;526;51.392;12.448;2024-03-08T13:27:28;12.40;83.50
1075;DHT22;526;51.392;12.448;2024-03-08T13:29:54;12.50;83.60
1075;DHT22;526;51.392;12.448;2024-03-08T13:32:19;12.70;83.00
1075;DHT22;526;51.392;12.448;2024-03-08T13:34:46;12.60;82.60
1075;DHT22;526;51.392;12.448;2024-03-08T13:37:12;12.70;83.50
1075;DHT22;526;51.392;12.448;2024-03-08T13:39:41;12.80;82.60
1075;DHT22;526;51.392;12.448;2024-03-08T13:42:10;13.00;82.20
1075;DHT22;526;51.392;12.448;2024-03-08T13:44:38;12.90;81.50
1075;DHT22;526;51.392;12.448;2024-03-08T13:47:04;12.70;82.40
1075;DHT22;526;51.392;12.448;2024-03-08T13:49:30;12.70;81.70
1075;DHT22;526;51.392;12.448;2024-03-08T13:51:56;12.70;81.90
1075;DHT22;526;51.392;12.448;2024-03-08T13:54:24;12.60;81.50
1075;DHT22;526;51.392;12.448;2024-03-08T13:56:50;12.50;82.20
1075;DHT22;526;51.392;12.448;2024-03-08T13:59:17;12.70;82.00
1075;DHT22;526;51.392;12.448;2024-03-08T14:01:43;12.90;81.40
1075;DHT22;526;51.392;12.448;2024-03-08T14:04:09;12.90;81.30
1075;DHT22;526;51.392;12.448;2024-03-08T14:06:35;12.90;81.00
1075;DHT22;526;51.392;12.448;2024-03-08T14:09:00;12.80;81.40
1075;DHT22;526;51.392;12.448;2024-03-08T14:11:27;12.80;81.20
1075;DHT22;526;51.392;12.448;2024-03-08T14:13:53;12.80;81.20
1075;DHT22;526;51.392;12.448;2024-03-08T14:16:19;12.70;81.20
1075;DHT22;526;51.392;12.448;2024-03-08T14:18:44;12.60;81.70
1075;DHT22;526;51.392;12.448;2024-03-08T14:21:10;12.70;81.30
1075;DHT22;526;51.392;12.448;2024-03-08T14:23:36;12.60;82.20
1075;DHT22;526;51.392;12.448;2024-03-08T14:26:03;12.70;81.60
1075;DHT22;526;51.392;12.448;2024-03-08T14:28:29;13.00;81.20
1075;DHT22;526;51.392;12.448;2024-03-08T14:30:55;13.20;81.00
1075;DHT22;526;51.392;12.448;2024-03-08T14:33:20;13.20;81.00
1075;DHT22;526;51.392;12.448;2024-03-08T14:35:46;13.30;80.80
1075;DHT22;526;51.392;12.448;2024-03-08T14:38:12;13.30;80.40
1075;DHT22;526;51.392;12.448;2024-03-08T14:40:38;13.00;80.70
1075;DHT22;526;51.392;12.448;2024-03-08T14:43:04;13.00;81.00
1075;DHT22;526;51.392;12.448;2024-03-08T14:45:31;13.00;81.10
1075;DHT22;526;51.392;12.448;2024-03-08T14:47:56;13.10;81.00
1075;DHT22;526;51.392;12.448;2024-03-08T14:50:23;13.10;81.10
1075;DHT22;526;51.392;12.448;2024-03-08T14:52:50;13.30;81.40
1075;DHT22;526;51.392;12.448;2024-03-08T14:55:16;13.50;81.80
1075;DHT22;526;51.392;12.448;2024-03-08T14:57:42;13.40;80.00
1075;DHT22;526;51.392;12.448;2024-03-08T15:00:11;13.40;80.50
1075;DHT22;526;51.392;12.448;2024-03-08T15:02:43;13.40;81.10
1075;DHT22;526;51.392;12.448;2024-03-08T15:05:08;13.80;80.50
1075;DHT22;526;51.392;12.448;2024-03-08T15:07:37;13.80;80.60
1075;DHT22;526;51.392;12.448;2024-03-08T15:10:06;13.70;80.30
1075;DHT22;526;51.392;12.448;2024-03-08T15:12:37;13.60;79.60
1075;DHT22;526;51.392;12.448;2024-03-08T15:15:06;13.30;80.30
1075;DHT22;526;51.392;12.448;2024-03-08T15:17:34;13.20;80.30
1075;DHT22;526;51.392;12.448;2024-03-08T15:20:00;13.10;81.00
1075;DHT22;526;51.392;12.448;2024-03-08T15:22:26;13.20;80.80
1075;DHT22;526;51.392;12.448;2024-03-08T15:24:52;13.50;80.60
1075;DHT22;526;51.392;12.448;2024-03-08T15:27:18;13.60;80.20
1075;DHT22;526;51.392;12.448;2024-03-08T15:29:44;13.70;80.20
1075;DHT22;526;51.392;12.448;2024-03-08T15:32:14;13.60;80.40
1075;DHT22;526;51.392;12.448;2024-03-08T15:34:45;13.30;80.50
1075;DHT22;526;51.392;12.448;2024-03-08T15:37:10;13.30;80.90
1075;DHT22;526;51.392;12.448;2024-03-08T15:39:40;13.30;80.50
1075;DHT22;526;51.392;12.448;2024-03-08T15:42:06;13.50;80.40
1075;DHT22;526;51.392;12.448;2024-03-08T15:44:32;13.60;80.20
1075;DHT22;526;51.392;12.448;2024-03-08T15:46:57;13.70;80.10
1075;DHT22;526;51.392;12.448;2024-03-08T15:49:23;13.60;80.20
1075;DHT22;526;51.392;12.448;2024-03-08T15:51:51;13.60;80.50
1075;DHT22;526;51.392;12.448;2024-03-08T15:54:17;13.80;80.40
1075;DHT22;526;51.392;12.448;2024-03-08T15:56:42;14.00;79.40
1075;DHT22;526;51.392;12.448;2024-03-08T15:59:08;14.00;79.70
1075;DHT22;526;51.392;12.448;2024-03-08T16:01:34;13.80;79.70
1075;DHT22;526;51.392;12.448;2024-03-08T16:03:59;13.80;79.80
1075;DHT22;526;51.392;12.448;2024-03-08T16:06:25;13.80;80.10
1075;DHT22;526;51.392;12.448;2024-03-08T16:08:51;13.80;80.30
1075;DHT22;526;51.392;12.448;2024-03-08T16:11:17;13.40;81.00
1075;DHT22;526;51.392;12.448;2024-03-08T16:13:43;13.30;81.40
1075;DHT22;526;51.392;12.448;2024-03-08T16:16:09;13.20;81.60
1075;DHT22;526;51.392;12.448;2024-03-08T16:18:35;13.00;81.70
1075;DHT22;526;51.392;12.448;2024-03-08T16:21:02;12.40;82.60
1075;DHT22;526;51.392;12.448;2024-03-08T16:23:28;11.90;83.90
1075;DHT22;526;51.392;12.448;2024-03-08T16:25:55;11.20;85.30
1075;DHT22;526;51.392;12.448;2024-03-08T16:28:20;10.70;86.80
1075;DHT22;526;51.392;12.448;2024-03-08T16:30:53;10.30;87.80
1075;DHT22;526;51.392;12.448;2024-03-08T16:33:22;10.00;88.80
1075;DHT22;526;51.392;12.448;2024-03-08T16:35:49;9.70;89.60
1075;DHT22;526;51.392;12.448;2024-03-08T16:38:15;9.50;90.00
1075;DHT22;526;51.392;12.448;2024-03-08T16:40:43;9.30;90.50
1075;DHT22;526;51.392;12.448;2024-03-08T16:43:09;9.20;90.50
1075;DHT22;526;51.392;12.448;2024-03-08T16:45:40;9.10;90.90
1075;DHT22;526;51.392;12.448;2024-03-08T16:48:05;9.00;91.00
1075;DHT22;526;51.392;12.448;2024-03-08T16:50:32;8.90;91.10
1075;DHT22;526;51.392;12.448;2024-03-08T16:52:59;8.80;91.60
1075;DHT22;526;51.392;12.448;2024-03-08T16:55:25;8.70;91.70
1075;DHT22;526;51.392;12.448;2024-03-08T16:57:51;8.60;92.20
1075;DHT22;526;51.392;12.448;2024-03-08T17:00:18;8.50;92.40
1075;DHT22;526;51.392;12.448;2024-03-08T17:02:48;8.40;92.80
1075;DHT22;526;51.392;12.448;2024-03-08T17:05:15;8.30;93.00
1075;DHT22;526;51.392;12.448;2024-03-08T17:07:43;8.30;93.10
1075;DHT22;526;51.392;12.448;2024-03-08T17:10:09;8.20;93.30
1075;DHT22;526;51.392;12.448;2024-03-08T17:12:43;8.10;93.50
1075;DHT22;526;51.392;12.448;2024-03-08T17:15:10;8.00;93.70
1075;DHT22;526;51.392;12.448;2024-03-08T17:17:38;7.90;93.90
1075;DHT22;526;51.392;12.448;2024-03-08T17:20:03;7.90;93.90
1075;DHT22;526;51.392;12.448;2024-03-08T17:22:32;7.80;93.90
1075;DHT22;526;51.392;12.448;2024-03-08T17:24:58;7.70;94.10
1075;DHT22;526;51.392;12.448;2024-03-08T17:27:24;7.70;94.20
1075;DHT22;526;51.392;12.448;2024-03-08T17:29:51;7.70;94.20
1075;DHT22;526;51.392;12.448;2024-03-08T17:32:17;7.60;94.30
1075;DHT22;526;51.392;12.448;2024-03-08T17:34:43;7.50;94.60
1075;DHT22;526;51.392;12.448;2024-03-08T17:37:09;7.50;94.60
1075;DHT22;526;51.392;12.448;2024-03-08T17:39:37;7.40;94.90
1075;DHT22;526;51.392;12.448;2024-03-08T17:42:04;7.30;94.90
1075;DHT22;526;51.392;12.448;2024-03-08T17:44:29;7.30;95.00
1075;DHT22;526;51.392;12.448;2024-03-08T17:46:55;7.30;95.10
1075;DHT22;526;51.392;12.448;2024-03-08T17:49:21;7.30;95.20
1075;DHT22;526;51.392;12.448;2024-03-08T17:51:48;7.20;95.40
1075;DHT22;526;51.392;12.448;2024-03-08T17:54:14;7.20;95.50
1075;DHT22;526;51.392;12.448;2024-03-08T17:56:41;7.20;95.80
1075;DHT22;526;51.392;12.448;2024-03-08T17:59:07;7.10;96.10
1075;DHT22;526;51.392;12.448;2024-03-08T18:01:35;7.10;96.10
1075;DHT22;526;51.392;12.448;2024-03-08T18:04:05;7.10;96.10
1075;DHT22;526;51.392;12.448;2024-03-08T18:06:35;7.00;96.40
1075;DHT22;526;51.392;12.448;2024-03-08T18:09:03;6.90;96.60
1075;DHT22;526;51.392;12.448;2024-03-08T18:11:31;6.90;96.90
1075;DHT22;526;51.392;12.448;2024-03-08T18:13:56;6.90;97.10
1075;DHT22;526;51.392;12.448;2024-03-08T18:16:22;6.80;97.30
1075;DHT22;526;51.392;12.448;2024-03-08T18:18:47;6.80;97.30
1075;DHT22;526;51.392;12.448;2024-03-08T18:21:15;6.80;97.30
1075;DHT22;526;51.392;12.448;2024-03-08T18:23:41;6.80;97.30
1075;DHT22;526;51.392;12.448;2024-03-08T18:26:08;6.70;97.30
1075;DHT22;526;51.392;12.448;2024-03-08T18:28:34;6.70;97.30
1075;DHT22;526;51.392;12.448;2024-03-08T18:31:01;6.60;97.30
1075;DHT22;526;51.392;12.448;2024-03-08T18:33:26;6.50;97.30
1075;DHT22;526;51.392;12.448;2024-03-08T18:35:53;6.50;97.30
1075;DHT22;526;51.392;12.448;2024-03-08T18:38:19;6.40;97.30
1075;DHT22;526;51.392;12.448;2024-03-08T18:40:48;6.40;97.30
1075;DHT22;526;51.392;12.448;2024-03-08T18:43:13;6.30;97.30
1075;DHT22;526;51.392;12.448;2024-03-08T18:45:39;6.20;97.30
1075;DHT22;526;51.392;12.448;2024-03-08T18:48:07;6.20;97.30
1075;DHT22;526;51.392;12.448;2024-03-08T18:50:32;6.10;97.30
1075;DHT22;526;51.392;12.448;2024-03-08T18:52:58;6.10;97.30
1075;DHT22;526;51.392;12.448;2024-03-08T18:55:24;6.10;97.30
1075;DHT22;526;51.392;12.448;2024-03-08T18:57:54;6.00;97.30
1075;DHT22;526;51.392;12.448;2024-03-08T19:00:23;6.00;97.30
1075;DHT22;526;51.392;12.448;2024-03-08T19:02:57;6.00;97.30
1075;DHT22;526;51.392;12.448;2024-03-08T19:05:25;6.00;97.30
1075;DHT22;526;51.392;12.448;2024-03-08T19:07:53;6.00;97.30
1075;DHT22;526;51.392;12.448;2024-03-08T19:10:21;6.00;97.30
1075;DHT22;526;51.392;12.448;2024-03-08T19:12:51;6.00;97.30
1075;DHT22;526;51.392;12.448;2024-03-08T19:15:19;5.90;97.30
1075;DHT22;526;51.392;12.448;2024-03-08T19:17:46;5.90;97.30
1075;DHT22;526;51.392;12.448;2024-03-08T19:20:15;5.90;97.30
1075;DHT22;526;51.392;12.448;2024-03-08T19:22:48;5.80;97.30
1075;DHT22;526;51.392;12.448;2024-03-08T19:25:14;5.80;97.30
1075;DHT22;526;51.392;12.448;2024-03-08T19:27:43;5.80;97.30
1075;DHT22;526;51.392;12.448;2024-03-08T19:30:10;5.80;97.30
1075;DHT22;526;51.392;12.448;2024-03-08T19:32:43;5.80;97.30
1075;DHT22;526;51.392;12.448;2024-03-08T19:35:10;5.70;97.30
1075;DHT22;526;51.392;12.448;2024-03-08T19:37:42;5.70;97.30
1075;DHT22;526;51.392;12.448;2024-03-08T19:40:16;5.60;97.30
1075;DHT22;526;51.392;12.448;2024-03-08T19:42:51;5.60;97.30
1075;DHT22;526;51.392;12.448;2024-03-08T19:45:24;5.60;97.30
1075;DHT22;526;51.392;12.448;2024-03-08T19:48:03;5.60;97.30
1075;DHT22;526;51.392;12.448;2024-03-08T19:50:35;5.60;97.30
1075;DHT22;526;51.392;12.448;2024-03-08T19:53:07;5.60;97.30
1075;DHT22;526;51.392;12.448;2024-03-08T19:55:34;5.50;97.30
1075;DHT22;526;51.392;12.448;2024-03-08T19:58:01;5.50;97.30
1075;DHT22;526;51.392;12.448;2024-03-08T20:00:27;5.50;97.30
1075;DHT22;526;51.392;12.448;2024-03-08T20:03:00;5.50;97.30
1075;DHT22;526;51.392;12.448;2024-03-08T20:05:28;5.40;97.30
1075;DHT22;526;51.392;12.448;2024-03-08T20:07:56;5.40;97.30
1075;DHT22;526;51.392;12.448;2024-03-08T20:10:23;5.40;97.30
1075;DHT22;526;51.392;12.448;2024-03-08T20:12:49;5.40;97.30
1075;DHT22;526;51.392;12.448;2024-03-08T20:15:17;5.30;97.30
1075;DHT22;526;51.392;12.448;2024-03-08T20:17:44;5.30;97.30
1075;DHT22;526;51.392;12.448;2024-03-08T20:20:11;5.30;97.30
1075;DHT22;526;51.392;12.448;2024-03-08T20:22:43;5.20;97.30
1075;DHT22;526;51.392;12.448;2024-03-08T20:25:14;5.20;97.30
1075;DHT22;526;51.392;12.448;2024-03-08T20:27:51;5.20;97.30
1075;DHT22;526;51.392;12.448;2024-03-08T20:30:24;5.20;97.30
1075;DHT22;526;51.392;12.448;2024-03-08T20:32:52;5.10;97.30
1075;DHT22;526;51.392;12.448;2024-03-08T20:35:20;5.10;97.30
1075;DHT22;526;51.392;12.448;2024-03-08T20:37:52;5.10;97.30
1075;DHT22;526;51.392;12.448;2024-03-08T20:40:19;5.00;97.30
1075;DHT22;526;51.392;12.448;2024-03-08T20:42:50;5.00;97.30
1075;DHT22;526;51.392;12.448;2024-03-08T20:45:16;4.90;97.30
1075;DHT22;526;51.392;12.448;2024-03-08T20:47:42;4.90;97.30
1075;DHT22;526;51.392;12.448;2024-03-08T20:50:09;4.80;97.30
1075;DHT22;526;51.392;12.448;2024-03-08T20:52:38;4.80;97.30
1075;DHT22;526;51.392;12.448;2024-03-08T20:55:05;4.80;97.30
1075;DHT22;526;51.392;12.448;2024-03-08T20:57:37;4.70;97.30
1075;DHT22;526;51.392;12.448;2024-03-08T21:00:03;4.70;97.30
1075;DHT22;526;51.392;12.448;2024-03-08T21:02:31;4.70;97.30
1075;DHT22;526;51.392;12.448;2024-03-08T21:04:57;4.70;97.30
1075;DHT22;526;51.392;12.448;2024-03-08T21:07:23;4.60;97.30
1075;DHT22;526;51.392;12.448;2024-03-08T21:09:49;4.60;97.30
1075;DHT22;526;51.392;12.448;2024-03-08T21:12:15;4.60;97.30
1075;DHT22;526;51.392;12.448;2024-03-08T21:14:43;4.50;97.30
1075;DHT22;526;51.392;12.448;2024-03-08T21:17:09;4.50;97.30
1075;DHT22;526;51.392;12.448;2024-03-08T21:19:35;4.50;97.30
1075;DHT22;526;51.392;12.448;2024-03-08T21:22:00;4.50;97.30